sensor_id;sensor_type;location;lat;lon;timestamp;pressure;altitude;pressure_sealevel;temperature;humidity
69460;BME280;57182;55.712;37.612;2022-07-01T00:00:33;99915.34;;;19.86;46.73
69460;BME280;57182;55.712;37.612;2022-07-01T00:03:03;99955.13;;;19.97;47.21
69460;BME280;57182;55.712;37.612;2022-07-01T00:05:31;99947.59;;;19.93;47.03
69460;BME280;57182;55.712;37.612;2022-07-01T00:07:59;99929.66;;;19.85;46.95
69460;BME280;57182;55.712;37.612;2022-07-01T00:10:32;99943.78;;;19.95;46.85
69460;BME280;57182;55.712;37.612;2022-07-01T00:13:02;99953.81;;;20.01;47.09
69460;BME280;57182;55.712;37.612;2022-07-01T00:15:33;99946.25;;;19.79;47.28
69460;BME280;57182;55.712;37.612;2022-07-01T00:18:07;99956.28;;;19.85;47.17
69460;BME280;57182;55.712;37.612;2022-07-01T00:20:37;99951.69;;;19.78;47.55
69460;BME280;57182;55.712;37.612;2022-07-01T00:23:12;99979.84;;;19.90;47.55
69460;BME280;57182;55.712;37.612;2022-07-01T00:25:44;99922.31;;;19.70;47.27
69460;BME280;57182;55.712;37.612;2022-07-01T00:28:17;99946.47;;;19.86;47.30
69460;BME280;57182;55.712;37.612;2022-07-01T00:30:51;99929.31;;;19.71;47.67
69460;BME280;57182;55.712;37.612;2022-07-01T00:33:21;99947.38;;;19.77;47.51
69460;BME280;57182;55.712;37.612;2022-07-01T00:35:50;99927.78;;;19.68;47.73
69460;BME280;57182;55.712;37.612;2022-07-01T00:38:18;99971.47;;;19.85;47.61
69460;BME280;57182;55.712;37.612;2022-07-01T00:40:51;99945.59;;;19.68;48.78
69460;BME280;57182;55.712;37.612;2022-07-01T00:43:22;99940.97;;;19.70;48.73
69460;BME280;57182;55.712;37.612;2022-07-01T00:46:13;99929.81;;;19.57;47.89
69460;BME280;57182;55.712;37.612;2022-07-01T00:48:50;99953.16;;;19.63;48.21
69460;BME280;57182;55.712;37.612;2022-07-01T00:51:23;99945.91;;;19.65;48.58
69460;BME280;57182;55.712;37.612;2022-07-01T00:53:52;99930.78;;;19.56;48.81
69460;BME280;57182;55.712;37.612;2022-07-01T00:56:22;99958.25;;;19.56;48.95
69460;BME280;57182;55.712;37.612;2022-07-01T00:58:50;99942.31;;;19.47;49.20
69460;BME280;57182;55.712;37.612;2022-07-01T01:01:18;99931.00;;;19.25;49.28
69460;BME280;57182;55.712;37.612;2022-07-01T01:03:52;99956.75;;;19.34;49.69
69460;BME280;57182;55.712;37.612;2022-07-01T01:06:21;99943.63;;;19.23;49.57
69460;BME280;57182;55.712;37.612;2022-07-01T01:08:49;99936.25;;;19.08;49.78
69460;BME280;57182;55.712;37.612;2022-07-01T01:11:17;99970.94;;;19.25;50.04
69460;BME280;57182;55.712;37.612;2022-07-01T01:13:48;99939.75;;;19.08;50.27
69460;BME280;57182;55.712;37.612;2022-07-01T01:16:19;99946.16;;;19.15;49.95
69460;BME280;57182;55.712;37.612;2022-07-01T01:18:50;99965.47;;;19.17;50.03
69460;BME280;57182;55.712;37.612;2022-07-01T01:21:25;99958.47;;;19.16;49.96
69460;BME280;57182;55.712;37.612;2022-07-01T01:24:14;99995.28;;;19.30;49.66
69460;BME280;57182;55.712;37.612;2022-07-01T01:26:42;99959.19;;;19.09;49.79
69460;BME280;57182;55.712;37.612;2022-07-01T01:29:24;99934.16;;;18.92;50.14
69460;BME280;57182;55.712;37.612;2022-07-01T01:31:58;99958.13;;;18.92;50.16
69460;BME280;57182;55.712;37.612;2022-07-01T01:34:28;99982.31;;;18.99;50.24
69460;BME280;57182;55.712;37.612;2022-07-01T01:36:59;99970.84;;;18.98;50.10
69460;BME280;57182;55.712;37.612;2022-07-01T01:39:30;99985.81;;;19.09;50.85
69460;BME280;57182;55.712;37.612;2022-07-01T01:41:58;99963.03;;;18.87;50.01
69460;BME280;57182;55.712;37.612;2022-07-01T01:44:29;99962.75;;;18.90;50.56
69460;BME280;57182;55.712;37.612;2022-07-01T01:46:57;99956.72;;;18.98;50.26
69460;BME280;57182;55.712;37.612;2022-07-01T01:49:30;99977.28;;;18.86;50.24
69460;BME280;57182;55.712;37.612;2022-07-01T01:52:04;99964.69;;;18.78;50.36
69460;BME280;57182;55.712;37.612;2022-07-01T01:54:43;99990.03;;;18.92;51.11
69460;BME280;57182;55.712;37.612;2022-07-01T01:57:18;99963.00;;;18.68;50.63
69460;BME280;57182;55.712;37.612;2022-07-01T01:59:48;99963.16;;;18.76;50.48
69460;BME280;57182;55.712;37.612;2022-07-01T02:02:20;99986.94;;;18.68;50.67
69460;BME280;57182;55.712;37.612;2022-07-01T02:04:52;99973.66;;;18.58;51.33
69460;BME280;57182;55.712;37.612;2022-07-01T02:07:22;99961.16;;;18.40;51.02
69460;BME280;57182;55.712;37.612;2022-07-01T02:10:01;99970.16;;;18.48;50.88
69460;BME280;57182;55.712;37.612;2022-07-01T02:12:29;99992.41;;;18.66;50.44
69460;BME280;57182;55.712;37.612;2022-07-01T02:19:33;99971.09;;;18.38;50.74
69460;BME280;57182;55.712;37.612;2022-07-01T02:22:00;99989.44;;;18.41;50.54
69460;BME280;57182;55.712;37.612;2022-07-01T02:27:48;99994.94;;;18.49;50.83
69460;BME280;57182;55.712;37.612;2022-07-01T02:30:20;100005.28;;;18.52;50.74
69460;BME280;57182;55.712;37.612;2022-07-01T02:32:48;100009.34;;;18.56;50.47
69460;BME280;57182;55.712;37.612;2022-07-01T02:35:19;99986.91;;;18.39;50.41
69460;BME280;57182;55.712;37.612;2022-07-01T02:37:49;100028.09;;;18.64;50.56
69460;BME280;57182;55.712;37.612;2022-07-01T02:40:24;100037.88;;;18.54;50.60
69460;BME280;57182;55.712;37.612;2022-07-01T02:42:55;100019.50;;;18.41;50.50
69460;BME280;57182;55.712;37.612;2022-07-01T02:45:28;100016.59;;;18.44;50.13
69460;BME280;57182;55.712;37.612;2022-07-01T02:48:00;100044.47;;;18.50;50.15
69460;BME280;57182;55.712;37.612;2022-07-01T02:50:31;100051.44;;;18.51;49.96
69460;BME280;57182;55.712;37.612;2022-07-01T02:53:04;100052.25;;;18.42;49.81
69460;BME280;57182;55.712;37.612;2022-07-01T02:55:38;100007.84;;;18.13;50.03
69460;BME280;57182;55.712;37.612;2022-07-01T02:58:10;100025.88;;;18.10;49.63
69460;BME280;57182;55.712;37.612;2022-07-01T03:00:39;100027.84;;;18.17;49.27
69460;BME280;57182;55.712;37.612;2022-07-01T03:03:07;100052.94;;;18.44;48.92
69460;BME280;57182;55.712;37.612;2022-07-01T03:05:34;100024.66;;;18.23;48.65
69460;BME280;57182;55.712;37.612;2022-07-01T03:08:02;100062.31;;;18.38;48.70
69460;BME280;57182;55.712;37.612;2022-07-01T03:10:32;100088.63;;;18.41;48.69
69460;BME280;57182;55.712;37.612;2022-07-01T03:13:02;100063.16;;;18.39;48.22
69460;BME280;57182;55.712;37.612;2022-07-01T03:15:34;100062.56;;;18.26;47.98
69460;BME280;57182;55.712;37.612;2022-07-01T03:18:02;100060.03;;;18.24;47.97
69460;BME280;57182;55.712;37.612;2022-07-01T03:20:35;100037.06;;;18.13;48.08
69460;BME280;57182;55.712;37.612;2022-07-01T03:23:02;100088.75;;;18.40;47.75
69460;BME280;57182;55.712;37.612;2022-07-01T03:25:31;100083.88;;;18.45;47.49
69460;BME280;57182;55.712;37.612;2022-07-01T03:27:58;100061.03;;;18.33;47.27
69460;BME280;57182;55.712;37.612;2022-07-01T03:30:35;100042.56;;;18.21;46.80
69460;BME280;57182;55.712;37.612;2022-07-01T03:33:10;100061.19;;;18.41;46.68
69460;BME280;57182;55.712;37.612;2022-07-01T03:35:53;100049.28;;;18.35;46.76
69460;BME280;57182;55.712;37.612;2022-07-01T03:38:43;100045.94;;;18.43;46.66
69460;BME280;57182;55.712;37.612;2022-07-01T03:41:15;100048.06;;;18.39;46.55
69460;BME280;57182;55.712;37.612;2022-07-01T03:48:26;100087.38;;;18.45;46.01
69460;BME280;57182;55.712;37.612;2022-07-01T03:50:54;100062.72;;;18.34;45.90
69460;BME280;57182;55.712;37.612;2022-07-01T03:53:29;100057.50;;;18.22;45.89
69460;BME280;57182;55.712;37.612;2022-07-01T03:56:17;100098.50;;;18.60;45.64
69460;BME280;57182;55.712;37.612;2022-07-01T03:58:48;100069.66;;;18.55;45.54
69460;BME280;57182;55.712;37.612;2022-07-01T04:01:18;100088.56;;;18.62;44.83
69460;BME280;57182;55.712;37.612;2022-07-01T04:03:59;100090.66;;;18.68;44.40
69460;BME280;57182;55.712;37.612;2022-07-01T04:06:27;100094.44;;;18.65;44.38
69460;BME280;57182;55.712;37.612;2022-07-01T04:08:59;100117.84;;;18.81;44.25
69460;BME280;57182;55.712;37.612;2022-07-01T04:11:43;100085.91;;;18.62;43.91
69460;BME280;57182;55.712;37.612;2022-07-01T04:14:18;100102.72;;;18.62;43.67
69460;BME280;57182;55.712;37.612;2022-07-01T04:16:49;100102.56;;;18.73;43.90
69460;BME280;57182;55.712;37.612;2022-07-01T04:19:22;100130.75;;;18.95;43.51
69460;BME280;57182;55.712;37.612;2022-07-01T04:21:54;100103.84;;;18.89;43.40
69460;BME280;57182;55.712;37.612;2022-07-01T04:24:46;100088.19;;;19.05;42.85
69460;BME280;57182;55.712;37.612;2022-07-01T04:27:13;100085.38;;;19.06;43.13
69460;BME280;57182;55.712;37.612;2022-07-01T04:30:21;100098.13;;;19.22;42.87
69460;BME280;57182;55.712;37.612;2022-07-01T04:33:21;100136.38;;;19.50;42.20
69460;BME280;57182;55.712;37.612;2022-07-01T04:36:19;100098.84;;;19.33;41.42
69460;BME280;57182;55.712;37.612;2022-07-01T04:38:52;100107.69;;;19.43;41.57
69460;BME280;57182;55.712;37.612;2022-07-01T04:41:24;100101.09;;;19.48;40.98
69460;BME280;57182;55.712;37.612;2022-07-01T04:44:12;100094.38;;;19.43;41.37
69460;BME280;57182;55.712;37.612;2022-07-01T04:46:40;100109.22;;;19.56;41.03
69460;BME280;57182;55.712;37.612;2022-07-01T04:49:16;100123.50;;;19.64;40.82
69460;BME280;57182;55.712;37.612;2022-07-01T04:52:15;100129.78;;;19.73;40.42
69460;BME280;57182;55.712;37.612;2022-07-01T04:54:52;100124.19;;;19.66;39.88
69460;BME280;57182;55.712;37.612;2022-07-01T04:57:46;100092.50;;;19.63;39.99
69460;BME280;57182;55.712;37.612;2022-07-01T05:00:43;100111.94;;;19.92;39.60
69460;BME280;57182;55.712;37.612;2022-07-01T05:03:11;100097.19;;;19.98;39.45
69460;BME280;57182;55.712;37.612;2022-07-01T05:05:39;100112.94;;;20.19;39.43
69460;BME280;57182;55.712;37.612;2022-07-01T05:08:13;100106.44;;;20.40;40.10
69460;BME280;57182;55.712;37.612;2022-07-01T05:10:41;100102.97;;;20.57;38.60
69460;BME280;57182;55.712;37.612;2022-07-01T05:13:32;100137.03;;;20.91;38.00
69460;BME280;57182;55.712;37.612;2022-07-01T05:16:08;100126.06;;;20.94;37.91
69460;BME280;57182;55.712;37.612;2022-07-01T05:18:38;100108.97;;;20.87;36.85
69460;BME280;57182;55.712;37.612;2022-07-01T05:21:58;100112.41;;;20.97;36.78
69460;BME280;57182;55.712;37.612;2022-07-01T05:24:32;100125.59;;;21.08;35.97
69460;BME280;57182;55.712;37.612;2022-07-01T05:27:21;100117.16;;;21.03;36.75
69460;BME280;57182;55.712;37.612;2022-07-01T05:29:52;100112.38;;;21.06;36.49
69460;BME280;57182;55.712;37.612;2022-07-01T05:32:21;100097.09;;;21.34;36.48
69460;BME280;57182;55.712;37.612;2022-07-01T05:34:56;100103.81;;;21.56;35.79
69460;BME280;57182;55.712;37.612;2022-07-01T05:37:29;100124.34;;;21.81;35.72
69460;BME280;57182;55.712;37.612;2022-07-01T05:39:56;100136.91;;;22.06;35.49
69460;BME280;57182;55.712;37.612;2022-07-01T05:42:24;100120.03;;;22.06;35.15
69460;BME280;57182;55.712;37.612;2022-07-01T05:44:53;100115.63;;;22.22;34.72
69460;BME280;57182;55.712;37.612;2022-07-01T05:47:21;100113.22;;;22.45;34.63
69460;BME280;57182;55.712;37.612;2022-07-01T05:49:51;100136.66;;;22.93;34.24
69460;BME280;57182;55.712;37.612;2022-07-01T05:52:20;100126.03;;;23.57;34.00
69460;BME280;57182;55.712;37.612;2022-07-01T05:54:47;100109.34;;;24.26;33.36
69460;BME280;57182;55.712;37.612;2022-07-01T05:57:18;100103.56;;;25.07;31.38
69460;BME280;57182;55.712;37.612;2022-07-01T05:59:49;100122.22;;;25.91;31.06
69460;BME280;57182;55.712;37.612;2022-07-01T06:02:25;100108.72;;;26.43;28.37
69460;BME280;57182;55.712;37.612;2022-07-01T06:04:54;100120.69;;;27.06;28.90
69460;BME280;57182;55.712;37.612;2022-07-01T06:07:21;100107.53;;;27.38;28.11
69460;BME280;57182;55.712;37.612;2022-07-01T06:09:51;100134.44;;;27.74;27.41
69460;BME280;57182;55.712;37.612;2022-07-01T06:12:37;100106.16;;;27.70;26.90
69460;BME280;57182;55.712;37.612;2022-07-01T06:15:29;100111.78;;;27.48;25.95
69460;BME280;57182;55.712;37.612;2022-07-01T06:18:02;100115.91;;;27.92;25.81
69460;BME280;57182;55.712;37.612;2022-07-01T06:20:34;100109.53;;;28.00;25.50
69460;BME280;57182;55.712;37.612;2022-07-01T06:23:07;100111.31;;;27.93;24.34
69460;BME280;57182;55.712;37.612;2022-07-01T06:25:41;100105.75;;;28.29;23.44
69460;BME280;57182;55.712;37.612;2022-07-01T06:28:12;100116.06;;;29.00;24.67
69460;BME280;57182;55.712;37.612;2022-07-01T06:30:40;100121.50;;;29.07;23.50
69460;BME280;57182;55.712;37.612;2022-07-01T06:33:17;100121.19;;;28.76;23.69
69460;BME280;57182;55.712;37.612;2022-07-01T06:35:50;100114.63;;;29.04;23.67
69460;BME280;57182;55.712;37.612;2022-07-01T06:38:40;100145.94;;;28.79;22.40
69460;BME280;57182;55.712;37.612;2022-07-01T06:41:17;100138.41;;;28.68;23.37
69460;BME280;57182;55.712;37.612;2022-07-01T06:44:00;100143.22;;;28.38;23.48
69460;BME280;57182;55.712;37.612;2022-07-01T06:46:41;100123.72;;;28.77;23.66
69460;BME280;57182;55.712;37.612;2022-07-01T06:49:30;100138.56;;;29.07;22.96
69460;BME280;57182;55.712;37.612;2022-07-01T06:52:18;100133.75;;;29.03;22.25
69460;BME280;57182;55.712;37.612;2022-07-01T06:54:50;100127.84;;;29.53;21.58
69460;BME280;57182;55.712;37.612;2022-07-01T06:57:27;100143.91;;;29.81;20.82
69460;BME280;57182;55.712;37.612;2022-07-01T07:00:01;100141.78;;;29.63;20.51
69460;BME280;57182;55.712;37.612;2022-07-01T07:02:43;100156.59;;;30.07;20.51
69460;BME280;57182;55.712;37.612;2022-07-01T07:05:14;100133.78;;;30.60;20.38
69460;BME280;57182;55.712;37.612;2022-07-01T07:07:43;100128.59;;;31.03;20.19
69460;BME280;57182;55.712;37.612;2022-07-01T07:10:14;100132.03;;;31.23;19.32
69460;BME280;57182;55.712;37.612;2022-07-01T07:13:09;100144.03;;;31.02;19.79
69460;BME280;57182;55.712;37.612;2022-07-01T07:15:41;100140.31;;;30.26;19.55
69460;BME280;57182;55.712;37.612;2022-07-01T07:18:15;100146.75;;;30.38;20.18
69460;BME280;57182;55.712;37.612;2022-07-01T07:20:43;100134.56;;;30.74;20.12
69460;BME280;57182;55.712;37.612;2022-07-01T07:23:15;100129.03;;;31.00;19.64
69460;BME280;57182;55.712;37.612;2022-07-01T07:26:11;100129.88;;;30.23;19.37
69460;BME280;57182;55.712;37.612;2022-07-01T07:28:53;100143.22;;;30.18;19.82
69460;BME280;57182;55.712;37.612;2022-07-01T07:31:37;100129.00;;;30.56;18.67
69460;BME280;57182;55.712;37.612;2022-07-01T07:34:28;100132.91;;;31.17;18.36
69460;BME280;57182;55.712;37.612;2022-07-01T07:37:00;100144.72;;;30.85;17.85
69460;BME280;57182;55.712;37.612;2022-07-01T07:39:31;100165.59;;;31.29;17.09
69460;BME280;57182;55.712;37.612;2022-07-01T07:45:03;100143.94;;;31.53;17.00
69460;BME280;57182;55.712;37.612;2022-07-01T07:47:34;100153.41;;;31.76;16.28
69460;BME280;57182;55.712;37.612;2022-07-01T07:50:17;100162.75;;;31.17;17.09
69460;BME280;57182;55.712;37.612;2022-07-01T07:53:05;100148.84;;;31.07;17.29
69460;BME280;57182;55.712;37.612;2022-07-01T07:58:45;100162.47;;;31.63;17.17
69460;BME280;57182;55.712;37.612;2022-07-01T08:01:15;100165.59;;;31.91;16.16
69460;BME280;57182;55.712;37.612;2022-07-01T08:03:56;100167.91;;;31.88;16.60
69460;BME280;57182;55.712;37.612;2022-07-01T08:06:59;100160.28;;;32.03;16.76
69460;BME280;57182;55.712;37.612;2022-07-01T08:09:43;100180.81;;;31.99;17.10
69460;BME280;57182;55.712;37.612;2022-07-01T08:12:31;100167.31;;;32.10;16.72
69460;BME280;57182;55.712;37.612;2022-07-01T08:15:11;100164.03;;;32.45;16.84
69460;BME280;57182;55.712;37.612;2022-07-01T08:17:39;100166.56;;;32.82;16.19
69460;BME280;57182;55.712;37.612;2022-07-01T08:20:07;100184.34;;;33.15;16.05
69460;BME280;57182;55.712;37.612;2022-07-01T08:22:40;100190.19;;;33.00;16.99
69460;BME280;57182;55.712;37.612;2022-07-01T08:25:13;100172.81;;;33.01;15.67
69460;BME280;57182;55.712;37.612;2022-07-01T08:28:13;100182.19;;;33.05;16.39
69460;BME280;57182;55.712;37.612;2022-07-01T08:30:43;100214.09;;;32.12;15.75
69460;BME280;57182;55.712;37.612;2022-07-01T08:33:22;100193.63;;;31.60;16.40
69460;BME280;57182;55.712;37.612;2022-07-01T08:35:51;100197.06;;;31.36;16.90
69460;BME280;57182;55.712;37.612;2022-07-01T08:38:30;100181.47;;;30.74;16.92
69460;BME280;57182;55.712;37.612;2022-07-01T08:41:23;100218.41;;;31.26;17.12
69460;BME280;57182;55.712;37.612;2022-07-01T08:44:40;100192.00;;;31.53;16.60
69460;BME280;57182;55.712;37.612;2022-07-01T08:47:16;100190.59;;;32.24;16.27
69460;BME280;57182;55.712;37.612;2022-07-01T08:49:45;100200.75;;;31.80;16.39
69460;BME280;57182;55.712;37.612;2022-07-01T08:52:21;100183.53;;;31.30;16.61
69460;BME280;57182;55.712;37.612;2022-07-01T08:54:57;100213.41;;;31.92;16.80
69460;BME280;57182;55.712;37.612;2022-07-01T08:57:25;100207.66;;;32.07;16.46
69460;BME280;57182;55.712;37.612;2022-07-01T09:00:07;100195.88;;;31.63;17.04
69460;BME280;57182;55.712;37.612;2022-07-01T09:02:56;100196.97;;;31.56;16.71
69460;BME280;57182;55.712;37.612;2022-07-01T09:05:36;100203.16;;;31.94;16.67
69460;BME280;57182;55.712;37.612;2022-07-01T09:08:09;100188.59;;;32.13;16.56
69460;BME280;57182;55.712;37.612;2022-07-01T09:10:37;100187.41;;;32.52;16.46
69460;BME280;57182;55.712;37.612;2022-07-01T09:13:06;100200.94;;;32.34;16.23
69460;BME280;57182;55.712;37.612;2022-07-01T09:15:41;100194.91;;;31.51;16.60
69460;BME280;57182;55.712;37.612;2022-07-01T09:18:15;100220.84;;;31.79;16.64
69460;BME280;57182;55.712;37.612;2022-07-01T09:20:45;100185.88;;;31.89;16.46
69460;BME280;57182;55.712;37.612;2022-07-01T09:23:18;100180.28;;;32.51;16.54
69460;BME280;57182;55.712;37.612;2022-07-01T09:25:49;100211.75;;;32.65;15.91
69460;BME280;57182;55.712;37.612;2022-07-01T09:28:28;100178.91;;;32.24;16.19
69460;BME280;57182;55.712;37.612;2022-07-01T09:31:08;100212.72;;;32.28;16.06
69460;BME280;57182;55.712;37.612;2022-07-01T09:33:41;100200.03;;;31.66;17.05
69460;BME280;57182;55.712;37.612;2022-07-01T09:36:15;100207.06;;;32.05;16.80
69460;BME280;57182;55.712;37.612;2022-07-01T09:38:50;100212.28;;;32.06;17.11
69460;BME280;57182;55.712;37.612;2022-07-01T09:41:54;100197.09;;;31.67;17.44
69460;BME280;57182;55.712;37.612;2022-07-01T09:44:23;100182.09;;;31.90;17.13
69460;BME280;57182;55.712;37.612;2022-07-01T09:46:53;100225.72;;;32.44;16.91
69460;BME280;57182;55.712;37.612;2022-07-01T09:49:24;100196.72;;;32.63;15.88
69460;BME280;57182;55.712;37.612;2022-07-01T09:51:58;100190.78;;;33.02;15.71
69460;BME280;57182;55.712;37.612;2022-07-01T09:54:28;100187.88;;;32.85;15.64
69460;BME280;57182;55.712;37.612;2022-07-01T09:57:10;100199.19;;;32.82;15.89
69460;BME280;57182;55.712;37.612;2022-07-01T09:59:55;100194.34;;;32.66;15.53
69460;BME280;57182;55.712;37.612;2022-07-01T10:02:33;100198.00;;;32.60;15.00
69460;BME280;57182;55.712;37.612;2022-07-01T10:05:06;100206.63;;;32.51;15.86
69460;BME280;57182;55.712;37.612;2022-07-01T10:13:54;100218.41;;;33.06;15.51
69460;BME280;57182;55.712;37.612;2022-07-01T10:16:24;100192.31;;;33.16;15.51
69460;BME280;57182;55.712;37.612;2022-07-01T10:18:56;100205.03;;;32.86;15.64
69460;BME280;57182;55.712;37.612;2022-07-01T10:21:28;100194.28;;;32.73;15.70
69460;BME280;57182;55.712;37.612;2022-07-01T10:24:12;100230.06;;;32.02;15.65
69460;BME280;57182;55.712;37.612;2022-07-01T10:26:49;100196.44;;;31.97;16.27
69460;BME280;57182;55.712;37.612;2022-07-01T10:32:26;100219.59;;;32.06;16.23
69460;BME280;57182;55.712;37.612;2022-07-01T10:35:20;100223.38;;;31.73;16.26
69460;BME280;57182;55.712;37.612;2022-07-01T10:37:59;100208.44;;;30.23;17.05
69460;BME280;57182;55.712;37.612;2022-07-01T10:40:44;100225.59;;;29.24;17.83
69460;BME280;57182;55.712;37.612;2022-07-01T10:43:37;100195.38;;;28.66;18.37
69460;BME280;57182;55.712;37.612;2022-07-01T10:46:48;100201.59;;;28.67;17.78
69460;BME280;57182;55.712;37.612;2022-07-01T10:52:25;100203.75;;;29.25;17.72
69460;BME280;57182;55.712;37.612;2022-07-01T10:55:17;100189.91;;;30.01;17.04
69460;BME280;57182;55.712;37.612;2022-07-01T10:57:54;100190.75;;;30.40;16.29
69460;BME280;57182;55.712;37.612;2022-07-01T11:03:14;100206.97;;;30.53;16.13
69460;BME280;57182;55.712;37.612;2022-07-01T11:05:49;100185.97;;;29.97;16.70
69460;BME280;57182;55.712;37.612;2022-07-01T11:08:20;100200.09;;;30.31;16.32
69460;BME280;57182;55.712;37.612;2022-07-01T11:11:02;100196.03;;;30.86;16.40
69460;BME280;57182;55.712;37.612;2022-07-01T11:14:01;100211.13;;;31.20;16.00
69460;BME280;57182;55.712;37.612;2022-07-01T11:16:36;100194.59;;;31.28;15.43
69460;BME280;57182;55.712;37.612;2022-07-01T11:19:10;100193.94;;;30.82;16.07
69460;BME280;57182;55.712;37.612;2022-07-01T11:21:53;100190.91;;;30.52;16.17
69460;BME280;57182;55.712;37.612;2022-07-01T11:24:24;100201.03;;;30.83;16.29
69460;BME280;57182;55.712;37.612;2022-07-01T11:26:55;100206.28;;;31.35;16.43
69460;BME280;57182;55.712;37.612;2022-07-01T11:29:28;100193.06;;;31.77;16.24
69460;BME280;57182;55.712;37.612;2022-07-01T11:32:01;100210.53;;;31.18;16.66
69460;BME280;57182;55.712;37.612;2022-07-01T11:34:30;100195.97;;;31.06;16.92
69460;BME280;57182;55.712;37.612;2022-07-01T11:36:58;100187.91;;;30.86;16.91
69460;BME280;57182;55.712;37.612;2022-07-01T11:39:47;100194.47;;;30.52;16.80
69460;BME280;57182;55.712;37.612;2022-07-01T11:42:15;100183.56;;;30.79;16.87
69460;BME280;57182;55.712;37.612;2022-07-01T11:44:44;100192.28;;;30.94;16.97
69460;BME280;57182;55.712;37.612;2022-07-01T11:47:25;100195.22;;;30.79;16.85
69460;BME280;57182;55.712;37.612;2022-07-01T11:49:55;100201.28;;;30.75;16.68
69460;BME280;57182;55.712;37.612;2022-07-01T11:52:33;100208.16;;;30.84;16.44
69460;BME280;57182;55.712;37.612;2022-07-01T11:55:02;100202.91;;;31.02;16.43
69460;BME280;57182;55.712;37.612;2022-07-01T11:57:50;100198.16;;;31.29;15.60
69460;BME280;57182;55.712;37.612;2022-07-01T12:00:22;100216.78;;;31.63;15.75
69460;BME280;57182;55.712;37.612;2022-07-01T12:02:55;100206.47;;;31.71;15.78
69460;BME280;57182;55.712;37.612;2022-07-01T12:05:31;100194.31;;;31.43;16.27
69460;BME280;57182;55.712;37.612;2022-07-01T12:08:04;100197.81;;;31.56;16.30
69460;BME280;57182;55.712;37.612;2022-07-01T12:10:36;100214.56;;;31.47;16.17
69460;BME280;57182;55.712;37.612;2022-07-01T12:13:39;100228.41;;;31.32;16.83
69460;BME280;57182;55.712;37.612;2022-07-01T12:16:22;100217.56;;;31.32;16.50
69460;BME280;57182;55.712;37.612;2022-07-01T12:18:59;100188.31;;;31.34;16.50
69460;BME280;57182;55.712;37.612;2022-07-01T12:21:29;100197.25;;;31.41;16.29
69460;BME280;57182;55.712;37.612;2022-07-01T12:24:11;100204.34;;;31.42;16.25
69460;BME280;57182;55.712;37.612;2022-07-01T12:27:03;100210.75;;;31.54;16.53
69460;BME280;57182;55.712;37.612;2022-07-01T12:29:52;100204.75;;;31.77;15.71
69460;BME280;57182;55.712;37.612;2022-07-01T12:32:29;100217.16;;;31.66;16.03
69460;BME280;57182;55.712;37.612;2022-07-01T12:35:01;100237.56;;;31.38;16.04
69460;BME280;57182;55.712;37.612;2022-07-01T12:37:36;100207.31;;;31.34;16.38
69460;BME280;57182;55.712;37.612;2022-07-01T12:40:06;100242.06;;;31.88;16.37
69460;BME280;57182;55.712;37.612;2022-07-01T12:42:35;100239.94;;;31.65;16.55
69460;BME280;57182;55.712;37.612;2022-07-01T12:45:22;100216.59;;;31.58;16.15
69460;BME280;57182;55.712;37.612;2022-07-01T12:48:00;100214.34;;;31.48;16.08
69460;BME280;57182;55.712;37.612;2022-07-01T12:50:30;100213.03;;;31.20;15.44
69460;BME280;57182;55.712;37.612;2022-07-01T12:53:10;100206.31;;;30.71;15.98
69460;BME280;57182;55.712;37.612;2022-07-01T12:55:45;100234.88;;;30.74;15.58
69460;BME280;57182;55.712;37.612;2022-07-01T12:58:23;100227.84;;;30.07;15.85
69460;BME280;57182;55.712;37.612;2022-07-01T13:00:53;100240.31;;;29.82;16.06
69460;BME280;57182;55.712;37.612;2022-07-01T13:03:24;100231.59;;;30.06;15.85
69460;BME280;57182;55.712;37.612;2022-07-01T13:05:56;100243.44;;;30.31;15.98
69460;BME280;57182;55.712;37.612;2022-07-01T13:08:26;100225.34;;;30.06;16.33
69460;BME280;57182;55.712;37.612;2022-07-01T13:10:54;100240.31;;;29.88;16.67
69460;BME280;57182;55.712;37.612;2022-07-01T13:13:29;100257.44;;;30.02;16.75
69460;BME280;57182;55.712;37.612;2022-07-01T13:15:57;100223.25;;;29.81;17.00
69460;BME280;57182;55.712;37.612;2022-07-01T13:18:25;100222.41;;;30.01;17.53
69460;BME280;57182;55.712;37.612;2022-07-01T13:20:53;100228.06;;;30.45;17.41
69460;BME280;57182;55.712;37.612;2022-07-01T13:23:23;100218.41;;;30.69;16.52
69460;BME280;57182;55.712;37.612;2022-07-01T13:25:51;100251.88;;;31.13;16.41
69460;BME280;57182;55.712;37.612;2022-07-01T13:28:19;100237.00;;;31.23;16.50
69460;BME280;57182;55.712;37.612;2022-07-01T13:30:46;100234.31;;;31.16;16.55
69460;BME280;57182;55.712;37.612;2022-07-01T13:33:18;100229.63;;;31.36;16.51
69460;BME280;57182;55.712;37.612;2022-07-01T13:35:46;100221.09;;;31.70;16.42
69460;BME280;57182;55.712;37.612;2022-07-01T13:38:17;100222.94;;;31.39;16.32
69460;BME280;57182;55.712;37.612;2022-07-01T13:40:50;100233.84;;;30.62;15.95
69460;BME280;57182;55.712;37.612;2022-07-01T13:43:20;100246.09;;;29.66;17.11
69460;BME280;57182;55.712;37.612;2022-07-01T13:45:51;100236.72;;;28.67;17.94
69460;BME280;57182;55.712;37.612;2022-07-01T13:48:21;100271.00;;;27.96;18.72
69460;BME280;57182;55.712;37.612;2022-07-01T13:50:48;100265.38;;;27.20;19.47
69460;BME280;57182;55.712;37.612;2022-07-01T13:53:16;100254.88;;;26.52;19.73
69460;BME280;57182;55.712;37.612;2022-07-01T13:55:43;100238.66;;;26.22;19.77
69460;BME280;57182;55.712;37.612;2022-07-01T13:58:11;100259.66;;;26.27;19.69